Time;durP1;ratioP1;P1;durP2;ratioP2;P2;SDS_P1;SDS_P2;PMS_P1;PMS_P2;Temp;Humidity;BMP_temperature;BMP_pressure;BME280_temperature;BME280_humidity;BME280_pressure;Samples;Min_cycle;Max_cycle;Signal;HPM_P1;HPM_P2
2023/10/15 00:00:13;;;;;;;8.10;4.38;;;;;;;14.89;47.65;93638.00;5045240;28;20087;-71
2023/10/15 00:02:41;;;;;;;9.18;4.53;;;;;;;14.81;47.35;93622.91;5044378;28;20033;-71
2023/10/15 00:05:12;;;;;;;9.10;4.95;;;;;;;14.94;47.47;93634.31;5045698;28;20033;-71
2023/10/15 00:07:38;;;;;;;6.32;4.50;;;;;;;14.94;47.28;93634.31;5053154;28;20507;-71
2023/10/15 00:10:11;;;;;;;7.35;4.75;;;;;;;14.94;47.33;93628.94;5049717;28;20041;-72
2023/10/15 00:12:38;;;;;;;6.25;5.13;;;;;;;14.88;47.42;93630.31;5047816;28;20040;-72
2023/10/15 00:15:07;;;;;;;7.25;4.55;;;;;;;14.80;47.53;93618.66;5047622;28;20025;-72
2023/10/15 00:17:33;;;;;;;8.73;4.63;;;;;;;14.92;47.28;93620.47;5049153;28;20037;-71
2023/10/15 00:19:59;;;;;;;8.48;4.55;;;;;;;14.80;47.40;93609.84;5048247;28;20156;-71
2023/10/15 00:22:24;;;;;;;9.10;5.20;;;;;;;14.76;47.66;93611.66;5050604;28;20063;-72
2023/10/15 00:24:50;;;;;;;10.82;4.85;;;;;;;14.74;47.82;93609.31;5048054;28;20041;-72
2023/10/15 00:27:20;;;;;;;6.18;4.65;;;;;;;14.82;47.92;93610.25;5048737;28;20040;-72
2023/10/15 00:29:48;;;;;;;8.07;4.50;;;;;;;14.72;47.55;93616.13;5051475;28;20412;-71
2023/10/15 00:32:13;;;;;;;7.25;4.80;;;;;;;14.76;47.76;93611.66;5049410;28;20037;-73
2023/10/15 00:34:39;;;;;;;6.93;5.03;;;;;;;14.67;48.06;93609.13;5041149;28;20036;-72
2023/10/15 00:37:05;;;;;;;7.25;4.30;;;;;;;14.63;48.29;93620.84;5049873;28;20033;-72
2023/10/15 00:39:30;;;;;;;5.35;4.78;;;;;;;14.68;48.37;93609.91;5064562;28;20039;-70
2023/10/15 00:41:56;;;;;;;8.57;4.75;;;;;;;14.64;48.16;93615.16;5067324;28;20555;-72
2023/10/15 00:44:22;;;;;;;10.27;5.45;;;;;;;14.55;48.61;93611.88;5049407;28;20338;-72
2023/10/15 00:47:01;;;;;;;7.32;5.57;;;;;;;14.51;48.34;93606.41;5049162;28;20037;-72
2023/10/15 00:49:27;;;;;;;5.63;4.00;;;;;;;14.65;48.10;93605.25;5048977;28;20038;-71
2023/10/15 00:51:53;;;;;;;8.07;4.75;;;;;;;14.56;48.58;93606.19;5050582;28;20067;-72
2023/10/15 00:54:19;;;;;;;8.18;5.10;;;;;;;14.47;48.51;93597.47;5046836;28;21121;-70
2023/10/15 00:56:47;;;;;;;8.27;5.63;;;;;;;14.45;48.63;93613.13;5051529;28;20063;-70
2023/10/15 01:04:24;;;;;;;8.32;4.93;;;;;;;14.43;48.44;93599.28;5048929;28;20044;-73
2023/10/15 01:06:50;;;;;;;9.45;4.78;;;;;;;14.46;48.52;93597.84;5046548;28;20052;-73
2023/10/15 01:09:20;;;;;;;8.05;5.32;;;;;;;14.54;48.10;93592.38;5047011;28;20037;-72
2023/10/15 01:12:19;;;;;;;9.40;4.60;;;;;;;14.47;48.43;93589.47;5044158;28;20031;-69
2023/10/15 01:14:45;;;;;;;9.52;4.45;;;;;;;14.47;48.32;93578.75;5049751;28;20042;-71
2023/10/15 01:17:11;;;;;;;10.23;4.88;;;;;;;14.34;49.31;93587.97;5047939;28;20048;-72
2023/10/15 01:19:36;;;;;;;9.98;4.97;;;;;;;14.38;48.57;93586.16;5047019;28;20131;-71
2023/10/15 01:22:10;;;;;;;7.18;5.00;;;;;;;14.35;48.85;93584.19;5049438;28;20363;-70
2023/10/15 01:24:43;;;;;;;7.82;4.45;;;;;;;14.36;48.90;93582.28;5048109;28;20053;-71
2023/10/15 01:27:10;;;;;;;11.30;5.32;;;;;;;14.39;48.82;93587.72;5048438;28;20063;-72
2023/10/15 01:29:40;;;;;;;7.70;5.03;;;;;;;14.51;48.59;93585.00;5046435;28;20037;-71
2023/10/15 01:34:37;;;;;;;7.15;4.78;;;;;;;14.08;49.14;93560.91;5047331;28;20036;-70
2023/10/15 01:39:48;;;;;;;10.73;5.38;;;;;;;14.17;49.14;93593.63;5047634;28;20175;-70
2023/10/15 01:47:45;;;;;;;7.40;4.90;;;;;;;14.18;49.41;93592.47;5044034;28;20036;-73
2023/10/15 01:50:15;;;;;;;9.80;5.53;;;;;;;14.18;49.46;93584.47;5062732;28;20632;-70
2023/10/15 01:52:42;;;;;;;12.20;5.55;;;;;;;14.10;49.29;93593.41;5048158;28;20028;-71
2023/10/15 01:55:07;;;;;;;9.60;4.65;;;;;;;14.06;49.69;93587.19;5048477;28;20032;-72
2023/10/15 01:57:36;;;;;;;9.27;5.47;;;;;;;14.08;49.62;93584.97;5047135;28;20064;-70
2023/10/15 02:00:33;;;;;;;14.23;5.88;;;;;;;14.05;49.66;93589.09;5046477;28;20033;-71
2023/10/15 02:02:58;;;;;;;7.18;4.65;;;;;;;13.96;49.73;93575.09;5046688;28;20028;-72
2023/10/15 02:05:40;;;;;;;11.98;4.88;;;;;;;13.98;49.68;93574.75;5048700;28;20032;-72
2023/10/15 02:08:24;;;;;;;7.05;5.25;;;;;;;13.93;49.77;93577.66;5047334;28;20045;-70
2023/10/15 02:10:51;;;;;;;8.88;4.97;;;;;;;13.96;49.69;93575.09;5046410;28;20044;-72
2023/10/15 02:13:20;;;;;;;12.35;6.00;;;;;;;13.88;49.75;93572.56;5049300;28;20410;-71
2023/10/15 02:15:46;;;;;;;10.30;4.68;;;;;;;13.88;49.88;93577.91;5046415;28;20513;-71
2023/10/15 02:18:17;;;;;;;10.57;4.90;;;;;;;13.90;49.62;93586.34;5047654;28;20052;-69
2023/10/15 02:23:19;;;;;;;9.82;5.43;;;;;;;13.85;49.89;93590.03;5045509;28;20029;-71
2023/10/15 02:25:57;;;;;;;13.00;6.75;;;;;;;13.82;49.92;93587.28;5046478;28;20511;-71
2023/10/15 02:28:27;;;;;;;6.70;5.88;;;;;;;13.84;49.72;93593.06;5044775;28;20486;-70
2023/10/15 02:33:30;;;;;;;5.97;5.28;;;;;;;13.66;49.65;93587.97;5046015;28;20102;-71
2023/10/15 02:35:59;;;;;;;11.60;6.43;;;;;;;13.64;50.28;93594.78;5043686;28;20479;-71
2023/10/15 02:38:33;;;;;;;8.32;5.55;;;;;;;13.71;50.03;93590.41;5047802;28;20020;-73
2023/10/15 02:41:06;;;;;;;7.88;5.43;;;;;;;13.66;50.40;93582.63;5043422;28;20179;-70
2023/10/15 02:43:33;;;;;;;11.27;6.10;;;;;;;13.59;50.42;93587.75;5045886;28;20123;-70
2023/10/15 02:48:57;;;;;;;14.77;6.10;;;;;;;13.63;50.17;93583.31;5038250;28;20044;-72
2023/10/15 02:51:26;;;;;;;10.80;6.70;;;;;;;13.64;50.21;93582.16;5046268;28;20056;-70
2023/10/15 02:53:54;;;;;;;7.32;5.88;;;;;;;13.54;50.65;93596.00;5046350;28;20090;-73
2023/10/15 02:56:20;;;;;;;14.38;6.47;;;;;;;13.56;50.63;93585.72;5045110;28;20027;-71
2023/10/15 02:58:46;;;;;;;8.70;6.07;;;;;;;13.64;50.12;93581.41;5045550;28;20200;-72
2023/10/15 03:01:25;;;;;;;8.80;6.05;;;;;;;13.51;50.57;93575.28;5046734;28;20098;-71
2023/10/15 03:03:52;;;;;;;10.75;5.93;;;;;;;13.56;50.74;93582.28;5043039;28;20048;-71
2023/10/15 03:06:19;;;;;;;10.85;6.03;;;;;;;13.56;50.61;93576.94;5045714;28;20043;-70
2023/10/15 03:08:48;;;;;;;9.30;5.97;;;;;;;13.46;50.89;93582.72;5045015;28;20498;-72
2023/10/15 03:11:14;;;;;;;11.13;5.80;;;;;;;13.37;50.96;93569.50;5048185;28;20104;-69
2023/10/15 03:13:55;;;;;;;11.25;5.72;;;;;;;13.48;50.93;93591.22;5044563;28;20124;-72
2023/10/15 03:16:32;;;;;;;8.05;5.93;;;;;;;13.54;50.66;93577.28;5046301;28;20481;-70
2023/10/15 03:19:09;;;;;;;10.02;6.55;;;;;;;13.60;50.46;93589.31;5046997;28;20390;-72
2023/10/15 03:21:39;;;;;;;8.68;6.45;;;;;;;13.35;50.69;93566.38;5041758;28;20045;-71
2023/10/15 03:24:05;;;;;;;8.75;5.90;;;;;;;13.44;50.84;93572.41;5049084;28;20072;-71
2023/10/15 03:26:32;;;;;;;8.55;6.65;;;;;;;13.48;50.56;93578.63;5046004;28;20111;-71
2023/10/15 03:28:58;;;;;;;9.93;5.78;;;;;;;13.38;51.19;93584.44;5045420;28;20506;-70
2023/10/15 03:31:27;;;;;;;9.55;5.57;;;;;;;13.41;50.89;93581.06;5044838;28;20693;-73
2023/10/15 03:36:43;;;;;;;7.95;5.78;;;;;;;13.40;50.91;93576.84;5044934;28;20043;-73
2023/10/15 03:39:25;;;;;;;9.77;5.50;;;;;;;13.34;51.02;93575.53;5045487;28;20125;-71
2023/10/15 03:42:09;;;;;;;7.13;5.20;;;;;;;13.28;51.27;93572.31;5052355;28;20029;-71
2023/10/15 03:44:44;;;;;;;8.93;5.72;;;;;;;13.24;51.29;93571.41;5049116;28;20106;-71
2023/10/15 03:47:09;;;;;;;11.25;5.60;;;;;;;13.21;51.27;93563.28;5049427;28;20074;-71
2023/10/15 03:49:36;;;;;;;8.77;5.75;;;;;;;13.37;51.24;93569.50;5049624;28;20037;-70
2023/10/15 03:52:08;;;;;;;7.22;5.63;;;;;;;13.34;51.42;93564.84;5048506;28;20563;-71
2023/10/15 03:54:37;;;;;;;10.15;6.13;;;;;;;13.36;51.41;93564.50;5050705;28;20033;-71
2023/10/15 03:57:06;;;;;;;9.93;5.97;;;;;;;13.40;51.12;93570.75;5050144;28;20049;-71
2023/10/15 03:59:41;;;;;;;7.63;5.93;;;;;;;13.28;51.65;93566.19;5047816;28;20020;-73
2023/10/15 04:02:11;;;;;;;11.90;6.32;;;;;;;13.27;51.59;93561.94;5048831;28;20033;-71
2023/10/15 04:04:37;;;;;;;9.35;6.25;;;;;;;13.33;51.04;93561.41;5048906;28;20033;-71
2023/10/15 04:07:10;;;;;;;7.43;5.15;;;;;;;13.43;51.29;93567.38;5063576;28;20048;-70
2023/10/15 04:09:36;;;;;;;11.05;5.65;;;;;;;13.39;51.35;93556.59;5049896;28;20047;-73
2023/10/15 04:12:06;;;;;;;8.80;6.35;;;;;;;13.44;51.32;93558.25;5049058;28;20021;-73
2023/10/15 04:14:35;;;;;;;7.75;6.05;;;;;;;13.48;51.16;93564.50;5050964;28;20028;-71
2023/10/15 04:17:01;;;;;;;10.27;6.25;;;;;;;13.26;51.00;93536.34;5048802;28;20039;-71
2023/10/15 04:19:29;;;;;;;7.45;5.38;;;;;;;13.41;51.14;93557.03;5048965;28;20037;-71
2023/10/15 04:22:13;;;;;;;7.63;5.68;;;;;;;13.42;51.23;93550.59;5048001;28;20037;-73
2023/10/15 04:24:42;;;;;;;10.77;6.15;;;;;;;13.41;51.34;93558.91;5047410;28;20065;-71
2023/10/15 04:27:14;;;;;;;10.13;6.82;;;;;;;13.40;51.26;93547.44;5049095;28;20021;-70
2023/10/15 04:29:44;;;;;;;9.07;5.53;;;;;;;13.36;51.17;93556.47;5048418;28;20029;-72
2023/10/15 04:32:12;;;;;;;11.95;6.03;;;;;;;13.38;51.01;93551.59;5049307;28;20040;-72
2023/10/15 04:34:37;;;;;;;9.05;5.85;;;;;;;13.41;51.17;93558.91;5047241;28;20141;-72
2023/10/15 04:37:16;;;;;;;10.15;5.53;;;;;;;13.34;51.46;93556.84;5063808;28;20135;-73
2023/10/15 04:39:55;;;;;;;9.68;5.70;;;;;;;13.43;51.24;93570.84;5045727;28;20033;-71
2023/10/15 04:42:21;;;;;;;9.57;5.68;;;;;;;13.40;51.34;93555.47;5049989;28;20048;-73
2023/10/15 04:44:51;;;;;;;9.50;5.75;;;;;;;13.31;51.42;93565.50;5047635;28;20021;-72
2023/10/15 04:47:25;;;;;;;9.15;6.60;;;;;;;13.22;51.78;93554.16;5047742;28;20068;-73
2023/10/15 04:49:55;;;;;;;11.75;5.90;;;;;;;13.15;52.01;93553.97;5051907;28;20440;-71
2023/10/15 04:52:22;;;;;;;9.02;5.80;;;;;;;13.22;52.15;93562.16;5048480;28;20093;-71
2023/10/15 04:54:47;;;;;;;10.73;6.05;;;;;;;13.22;51.88;93551.50;5047764;28;20040;-73
2023/10/15 04:57:13;;;;;;;12.15;6.78;;;;;;;13.29;52.09;93570.41;5048370;28;20357;-71
2023/10/15 04:59:38;;;;;;;9.95;5.72;;;;;;;13.25;52.28;93572.19;5049000;28;21061;-71
2023/10/15 05:02:03;;;;;;;14.70;6.20;;;;;;;13.13;52.21;93564.19;5047643;28;20039;-71
2023/10/15 05:04:29;;;;;;;13.75;7.63;;;;;;;13.18;52.21;93567.41;5048893;28;20099;-73
2023/10/15 05:06:55;;;;;;;9.27;5.95;;;;;;;13.20;52.22;93575.09;5051046;28;20123;-73
2023/10/15 05:09:21;;;;;;;21.25;7.50;;;;;;;13.20;52.63;93569.75;5047644;28;20029;-73
2023/10/15 05:11:53;;;;;;;12.05;6.55;;;;;;;13.32;52.08;93577.75;5050417;28;20077;-73
2023/10/15 05:14:19;;;;;;;7.63;6.03;;;;;;;13.24;52.31;93575.97;5049208;28;20037;-71
2023/10/15 05:16:47;;;;;;;10.40;5.82;;;;;;;13.30;52.60;93579.97;5048260;28;20040;-72
2023/10/15 05:19:16;;;;;;;8.48;6.38;;;;;;;13.34;52.36;93583.53;5047167;28;20101;-71
2023/10/15 05:21:42;;;;;;;12.73;7.18;;;;;;;13.29;52.67;93575.75;5047931;28;20055;-71
2023/10/15 05:24:08;;;;;;;9.75;6.15;;;;;;;13.31;52.83;93587.66;5047882;28;20043;-73
2023/10/15 05:26:33;;;;;;;17.52;7.35;;;;;;;13.36;52.82;93583.97;5048304;28;20024;-71
2023/10/15 05:28:59;;;;;;;14.07;7.50;;;;;;;13.42;52.90;93584.53;5048954;28;20375;-71
2023/10/15 05:31:24;;;;;;;14.63;8.27;;;;;;;13.32;53.19;93567.84;5047709;28;20037;-72
2023/10/15 05:33:50;;;;;;;17.58;7.20;;;;;;;13.39;53.29;93583.31;5048359;28;20029;-73
2023/10/15 05:36:15;;;;;;;10.18;7.45;;;;;;;13.49;53.11;93582.88;5045222;28;20602;-72
2023/10/15 05:38:41;;;;;;;12.15;7.78;;;;;;;13.54;53.29;93584.53;5046186;28;20544;-70
2023/10/15 05:41:06;;;;;;;10.68;6.88;;;;;;;13.53;53.29;93572.28;5045326;28;20040;-73
2023/10/15 05:43:32;;;;;;;12.95;6.82;;;;;;;13.62;53.32;93573.72;5048465;28;20043;-73
2023/10/15 05:45:57;;;;;;;13.25;7.88;;;;;;;13.73;53.00;93572.16;5046873;28;20030;-70
2023/10/15 05:48:23;;;;;;;10.65;8.20;;;;;;;13.59;53.60;93547.66;5047056;28;20098;-72
2023/10/15 05:50:49;;;;;;;14.15;8.32;;;;;;;13.76;53.33;93560.00;5046811;28;20128;-71
2023/10/15 05:53:15;;;;;;;10.07;7.88;;;;;;;13.99;53.01;93568.28;5046824;28;20077;-72
2023/10/15 05:55:40;;;;;;;14.18;8.43;;;;;;;14.00;52.87;93565.25;5046309;28;20136;-72
2023/10/15 05:58:08;;;;;;;12.25;7.85;;;;;;;14.16;52.21;93563.44;5047498;28;20040;-72
2023/10/15 06:00:39;;;;;;;12.65;8.52;;;;;;;14.11;51.77;93578.94;5044733;28;20045;-72
2023/10/15 06:03:06;;;;;;;18.08;9.15;;;;;;;14.25;51.58;93576.66;5044831;28;20037;-72
2023/10/15 06:05:31;;;;;;;13.57;9.25;;;;;;;14.42;52.00;93580.94;5046889;28;20025;-73
2023/10/15 06:07:56;;;;;;;18.23;9.00;;;;;;;14.51;51.60;93578.88;5045372;28;20086;-73
2023/10/15 06:10:22;;;;;;;24.02;10.77;;;;;;;14.64;51.08;93585.72;5047903;28;20451;-71
2023/10/15 06:12:48;;;;;;;24.35;10.77;;;;;;;14.59;50.61;93580.63;5042547;28;20043;-73
2023/10/15 06:15:15;;;;;;;26.52;11.52;;;;;;;14.68;50.17;93593.84;5048417;28;20071;-82
2023/10/15 06:24:00;;;;;;;17.17;11.32;;;;;;;13.77;55.12;93582.16;5089454;27;20508;-72
2023/10/15 06:26:25;;;;;;;23.52;11.40;;;;;;;13.96;53.61;93571.63;5089679;28;20089;-70
2023/10/15 06:28:51;;;;;;;21.85;11.27;;;;;;;14.15;53.16;93571.78;5088476;27;20036;-70
2023/10/15 06:31:16;;;;;;;22.05;11.50;;;;;;;14.28;52.25;93559.13;5091003;27;20405;-70
2023/10/15 06:33:42;;;;;;;30.90;13.40;;;;;;;14.56;52.35;93559.91;5089095;27;20429;-70
2023/10/15 06:36:07;;;;;;;16.58;11.23;;;;;;;14.66;50.98;93555.94;5089937;27;20511;-70
2023/10/15 06:38:33;;;;;;;22.27;11.32;;;;;;;14.97;50.13;93570.13;5090898;28;20073;-72
2023/10/15 06:41:00;;;;;;;18.60;11.65;;;;;;;14.88;50.26;93550.00;5089891;27;20044;-68
2023/10/15 06:43:27;;;;;;;20.50;12.35;;;;;;;14.92;50.35;93570.38;5090261;27;20050;-70
2023/10/15 06:45:52;;;;;;;23.65;11.98;;;;;;;14.76;50.50;93569.59;5086906;27;20067;-72
2023/10/15 06:48:22;;;;;;;21.10;12.05;;;;;;;14.68;50.18;93567.06;5093090;27;20131;-72
2023/10/15 06:50:48;;;;;;;20.08;11.98;;;;;;;14.84;49.91;93571.31;5088784;28;20040;-72
2023/10/15 06:53:13;;;;;;;21.65;11.20;;;;;;;15.03;48.70;93546.53;5088297;28;20489;-73
2023/10/15 06:55:39;;;;;;;23.15;11.82;;;;;;;14.92;49.71;93534.78;5087937;28;20062;-71
2023/10/15 06:58:05;;;;;;;17.58;11.02;;;;;;;14.97;49.57;93547.91;5090680;27;20232;-72
2023/10/15 07:00:36;;;;;;;15.27;12.10;;;;;;;15.05;50.40;93544.28;5086551;27;20051;-71
2023/10/15 07:03:02;;;;;;;18.17;11.93;;;;;;;15.34;48.47;93545.72;5088256;27;20487;-71
2023/10/15 07:05:28;;;;;;;23.48;12.10;;;;;;;15.41;49.16;93543.19;5090533;28;20080;-71
2023/10/15 07:07:56;;;;;;;18.80;11.05;;;;;;;15.57;48.84;93540.50;5078109;28;20036;-72
2023/10/15 07:10:22;;;;;;;22.88;11.13;;;;;;;15.58;48.52;93516.03;5069810;28;20035;-70
2023/10/15 07:12:50;;;;;;;21.42;11.95;;;;;;;15.75;48.54;93541.66;5067084;28;20048;-72
2023/10/15 07:15:23;;;;;;;18.27;11.63;;;;;;;15.76;48.13;93532.47;5069979;28;20043;-72
2023/10/15 07:17:50;;;;;;;16.38;9.63;;;;;;;15.92;47.95;93527.06;5067820;28;20047;-71
2023/10/15 07:20:18;;;;;;;14.60;10.50;;;;;;;15.94;47.99;93528.25;5064717;28;20051;-71
2023/10/15 07:22:48;;;;;;;22.90;10.48;;;;;;;15.89;47.38;93499.03;5062418;28;20063;-72
2023/10/15 07:25:16;;;;;;;20.17;9.32;;;;;;;16.19;47.19;93532.19;5061065;28;20056;-72
2023/10/15 07:27:45;;;;;;;25.67;9.40;;;;;;;16.25;46.27;93530.78;5062113;28;20032;-72
2023/10/15 07:30:12;;;;;;;14.43;8.52;;;;;;;15.99;46.95;93533.31;5061313;28;20036;-72
2023/10/15 07:32:42;;;;;;;14.13;8.30;;;;;;;16.11;47.10;93519.78;5063312;28;20016;-72
2023/10/15 07:35:13;;;;;;;19.05;8.20;;;;;;;15.94;46.03;93481.91;5051458;28;20058;-72
2023/10/15 07:37:41;;;;;;;13.05;8.25;;;;;;;16.27;45.98;93503.59;5048895;28;20113;-71
2023/10/15 07:40:16;;;;;;;15.48;8.88;;;;;;;16.22;46.33;93522.66;5050129;28;20094;-70
2023/10/15 07:42:48;;;;;;;15.43;8.80;;;;;;;16.27;45.55;93507.06;5049995;28;20516;-72
2023/10/15 07:45:14;;;;;;;20.60;8.55;;;;;;;16.54;45.14;93520.59;5051546;28;20571;-72
2023/10/15 07:47:40;;;;;;;11.43;7.53;;;;;;;16.75;45.32;93519.06;5049130;28;20055;-70
2023/10/15 07:50:08;;;;;;;16.52;8.15;;;;;;;16.83;44.32;93513.78;5047371;28;20024;-70
2023/10/15 07:52:34;;;;;;;13.32;7.80;;;;;;;16.77;43.60;93496.44;5047894;28;20028;-70
2023/10/15 07:55:00;;;;;;;13.15;7.13;;;;;;;16.74;44.39;93514.03;5047846;28;20051;-71
2023/10/15 07:57:26;;;;;;;9.20;7.10;;;;;;;16.77;44.30;93510.63;5045794;28;20507;-71
2023/10/15 07:59:58;;;;;;;16.95;9.00;;;;;;;16.84;44.68;93516.13;5051242;28;20023;-71
2023/10/15 08:02:27;;;;;;;15.18;6.95;;;;;;;16.96;43.97;93507.09;5048286;28;20139;-70
2023/10/15 08:04:54;;;;;;;12.07;6.80;;;;;;;16.97;44.00;93495.97;5048568;28;20045;-70
2023/10/15 08:07:20;;;;;;;15.10;7.78;;;;;;;16.94;43.31;93512.06;5048225;28;20900;-71
2023/10/15 08:09:46;;;;;;;22.17;9.35;;;;;;;16.98;43.80;93496.75;5049229;28;20561;-71
2023/10/15 08:12:11;;;;;;;13.00;8.32;;;;;;;17.08;44.50;93491.56;5049483;28;20020;-70
2023/10/15 08:14:37;;;;;;;21.55;8.80;;;;;;;17.33;44.22;93501.91;5049709;28;20032;-71
2023/10/15 08:17:03;;;;;;;15.35;8.02;;;;;;;17.37;43.33;93489.28;5047175;28;20128;-69
2023/10/15 08:19:28;;;;;;;16.80;8.65;;;;;;;17.15;42.63;93475.59;5048786;28;20032;-70
2023/10/15 08:21:54;;;;;;;18.00;8.68;;;;;;;16.90;43.57;93495.88;5046964;28;20099;-69
2023/10/15 08:24:19;;;;;;;15.20;8.90;;;;;;;17.00;43.49;93484.53;5047713;28;20090;-70
2023/10/15 08:26:45;;;;;;;16.88;8.48;;;;;;;17.18;43.47;93496.34;5043922;28;20033;-72
2023/10/15 08:29:11;;;;;;;15.43;8.05;;;;;;;17.27;43.34;93493.38;5056436;28;20048;-69
2023/10/15 08:31:36;;;;;;;23.38;10.73;;;;;;;17.43;43.43;93485.94;5043778;28;20091;-70
2023/10/15 08:34:02;;;;;;;14.10;8.32;;;;;;;17.44;43.60;93484.81;5046925;28;20043;-72
2023/10/15 08:36:28;;;;;;;13.55;9.07;;;;;;;17.59;43.69;93483.88;5045774;28;20042;-71
2023/10/15 08:38:53;;;;;;;19.20;8.52;;;;;;;17.56;43.18;93473.81;5047438;28;20028;-69
2023/10/15 08:41:21;;;;;;;13.65;8.77;;;;;;;17.43;43.32;93479.78;5045315;28;20712;-70
2023/10/15 08:43:50;;;;;;;18.73;8.45;;;;;;;17.43;43.52;93485.94;5047008;28;20445;-72
2023/10/15 08:46:22;;;;;;;24.30;9.57;;;;;;;17.60;42.35;93484.63;5037202;28;20032;-70
2023/10/15 08:48:49;;;;;;;20.77;9.55;;;;;;;17.67;42.49;93483.94;5050746;28;20049;-72
2023/10/15 08:51:21;;;;;;;15.55;9.00;;;;;;;17.24;43.13;93485.28;5048874;28;20618;-72
2023/10/15 08:53:49;;;;;;;16.05;9.18;;;;;;;17.27;43.18;93482.63;5043065;28;20480;-72
2023/10/15 08:56:20;;;;;;;17.17;8.68;;;;;;;17.38;43.10;93480.09;5052870;28;20615;-70
2023/10/15 08:58:52;;;;;;;16.52;8.45;;;;;;;17.53;43.32;93463.03;5052884;28;20126;-71
2023/10/15 09:01:18;;;;;;;17.10;9.48;;;;;;;17.69;42.50;93479.75;5043735;28;20671;-72
2023/10/15 09:03:43;;;;;;;16.55;9.43;;;;;;;17.69;42.51;93455.56;5046135;28;20045;-71
2023/10/15 09:06:09;;;;;;;20.17;8.70;;;;;;;17.92;42.77;93464.28;5046966;28;20028;-71
2023/10/15 09:08:35;;;;;;;13.98;8.48;;;;;;;17.94;42.91;93470.06;5048493;28;20028;-70
2023/10/15 09:11:01;;;;;;;16.05;9.60;;;;;;;17.83;42.18;93436.91;5045524;28;20036;-70
2023/10/15 09:13:28;;;;;;;17.63;9.98;;;;;;;17.96;41.69;93465.13;5048319;28;20067;-72
2023/10/15 09:15:55;;;;;;;15.68;8.73;;;;;;;18.00;42.10;93430.94;5044423;28;20037;-71
2023/10/15 09:18:24;;;;;;;13.05;8.63;;;;;;;18.24;42.15;93458.47;5045375;28;20606;-71
2023/10/15 09:20:50;;;;;;;13.60;8.23;;;;;;;18.30;42.00;93457.00;5048500;28;20024;-72
2023/10/15 09:23:16;;;;;;;16.30;9.50;;;;;;;18.47;42.13;93448.34;5043333;28;20468;-72
2023/10/15 09:25:42;;;;;;;22.65;9.68;;;;;;;18.23;41.65;93446.19;5046683;28;20357;-72
2023/10/15 09:28:08;;;;;;;12.65;9.05;;;;;;;18.40;41.07;93456.34;5045588;28;20077;-72
2023/10/15 09:30:33;;;;;;;23.13;9.25;;;;;;;18.28;42.02;93449.31;5047481;28;20052;-73
2023/10/15 09:32:59;;;;;;;14.32;8.90;;;;;;;18.34;41.71;93447.03;5042547;28;20127;-72
2023/10/15 09:35:25;;;;;;;21.15;10.85;;;;;;;18.47;41.00;93432.19;5063402;28;20043;-72
2023/10/15 09:37:50;;;;;;;15.05;8.73;;;;;;;18.64;40.71;93434.22;5043845;28;20609;-72
2023/10/15 09:40:19;;;;;;;19.85;9.00;;;;;;;18.64;40.92;93441.53;5046436;28;20160;-72
2023/10/15 09:42:52;;;;;;;17.25;8.35;;;;;;;18.78;41.06;93434.38;5046994;28;20110;-72
2023/10/15 09:45:18;;;;;;;18.30;9.40;;;;;;;18.81;40.05;93438.25;5046720;28;20024;-71
2023/10/15 09:47:48;;;;;;;19.38;10.07;;;;;;;18.68;40.85;93440.41;5045270;28;20040;-72
2023/10/15 09:50:19;;;;;;;15.88;8.90;;;;;;;18.63;40.63;93431.91;5045010;28;20517;-72
2023/10/15 09:52:56;;;;;;;21.40;8.80;;;;;;;18.60;40.34;93424.59;5045184;28;20037;-72
2023/10/15 09:55:33;;;;;;;17.45;9.35;;;;;;;18.48;40.73;93409.47;5045684;28;20125;-70
2023/10/15 09:58:09;;;;;;;17.00;8.15;;;;;;;18.72;40.95;93414.34;5045277;28;20082;-72
2023/10/15 10:00:46;;;;;;;19.60;7.82;;;;;;;18.82;41.25;93421.69;5044882;28;20041;-71
2023/10/15 10:03:32;;;;;;;17.95;7.85;;;;;;;19.01;40.84;93419.91;5045299;28;20131;-71
2023/10/15 10:06:27;;;;;;;17.45;6.65;;;;;;;18.95;40.98;93416.03;5043420;28;20040;-71
2023/10/15 10:09:16;;;;;;;15.40;7.22;;;;;;;19.00;41.00;93410.28;5060493;28;20102;-70
2023/10/15 10:12:11;;;;;;;16.60;7.15;;;;;;;19.12;40.39;93413.44;5046303;28;20075;-72
2023/10/15 10:14:56;;;;;;;9.27;6.43;;;;;;;19.05;40.63;93405.31;5045362;28;20144;-72
2023/10/15 10:17:23;;;;;;;12.07;6.55;;;;;;;19.25;40.55;93384.25;5037723;28;20066;-71
2023/10/15 10:19:52;;;;;;;14.52;6.55;;;;;;;19.38;40.30;93382.75;5045922;28;20106;-72
2023/10/15 10:22:29;;;;;;;12.82;7.03;;;;;;;19.33;40.65;93372.34;5055679;28;20045;-72
2023/10/15 10:24:59;;;;;;;10.95;5.80;;;;;;;19.20;40.52;93374.59;5043944;28;20025;-71
2023/10/15 10:27:26;;;;;;;10.63;6.63;;;;;;;19.22;40.06;93349.94;5046414;28;20039;-72
2023/10/15 10:29:54;;;;;;;12.55;6.00;;;;;;;19.52;40.26;93363.19;5044816;28;20047;-72
2023/10/15 10:32:22;;;;;;;15.98;7.13;;;;;;;19.69;39.53;93346.31;5044990;28;20047;-70
2023/10/15 10:35:14;;;;;;;44.13;6.40;;;;;;;19.60;39.92;93322.38;5045392;28;20055;-71
2023/10/15 10:38:06;;;;;;;13.35;5.82;;;;;;;20.04;38.86;93361.81;5045648;28;20032;-72
2023/10/15 10:40:47;;;;;;;11.23;5.82;;;;;;;20.19;38.66;93354.53;5045063;28;20136;-72
2023/10/15 10:43:21;;;;;;;14.63;7.00;;;;;;;20.28;39.24;93353.00;5039260;28;20542;-71
2023/10/15 10:46:00;;;;;;;9.77;4.95;;;;;;;20.46;36.53;93348.38;5044843;28;20040;-71
2023/10/15 10:48:28;;;;;;;12.05;4.65;;;;;;;20.38;37.44;93344.13;5046312;28;20526;-71
2023/10/15 10:51:21;;;;;;;6.82;4.68;;;;;;;20.44;37.93;93337.16;5043140;28;20549;-73
2023/10/15 10:53:56;;;;;;;13.63;5.05;;;;;;;20.46;36.95;93332.16;5041873;28;20068;-70
2023/10/15 10:56:42;;;;;;;13.18;4.78;;;;;;;20.60;37.16;93334.84;5043022;28;20041;-70
2023/10/15 10:59:10;;;;;;;12.32;4.63;;;;;;;20.58;36.38;93320.94;5033429;28;20040;-72
2023/10/15 11:01:40;;;;;;;6.78;4.07;;;;;;;20.56;36.08;93319.81;5047245;28;20037;-72
2023/10/15 11:04:09;;;;;;;7.60;4.30;;;;;;;20.75;36.50;93318.63;5041945;28;20050;-70
2023/10/15 11:06:36;;;;;;;9.98;4.50;;;;;;;20.78;36.01;93299.69;5044460;28;20028;-68
2023/10/15 11:09:09;;;;;;;8.85;3.88;;;;;;;20.80;34.86;93316.31;5046851;28;20071;-70
2023/10/15 11:11:35;;;;;;;11.77;4.75;;;;;;;20.91;36.21;93306.28;5048563;28;20812;-71
2023/10/15 11:14:01;;;;;;;9.60;4.35;;;;;;;20.95;35.30;93293.50;5049935;28;20355;-71
2023/10/15 11:16:32;;;;;;;7.88;4.20;;;;;;;20.86;36.46;93297.75;5048744;28;20032;-72
2023/10/15 11:18:57;;;;;;;8.18;3.63;;;;;;;20.96;35.51;93286.19;5050536;28;20028;-70
2023/10/15 11:21:23;;;;;;;11.40;3.95;;;;;;;20.96;35.16;93297.75;5049046;28;20805;-72
2023/10/15 11:23:53;;;;;;;12.50;4.53;;;;;;;20.86;35.25;93289.66;5045981;28;20048;-69
2023/10/15 11:26:19;;;;;;;9.57;4.90;;;;;;;20.75;35.52;93286.19;5045942;28;20456;-71
2023/10/15 11:28:45;;;;;;;9.10;4.38;;;;;;;20.66;35.15;93277.72;5044057;28;20517;-69
2023/10/15 11:31:11;;;;;;;10.32;4.45;;;;;;;20.91;34.92;93294.69;5044067;28;20037;-71
2023/10/15 11:33:39;;;;;;;14.68;6.30;;;;;;;20.77;35.37;93267.69;5049852;28;20020;-71
2023/10/15 11:36:09;;;;;;;8.80;4.50;;;;;;;20.85;34.66;93283.47;5045412;28;20087;-72
2023/10/15 11:38:37;;;;;;;18.13;5.35;;;;;;;20.78;34.94;93264.56;5050478;28;20037;-70
2023/10/15 11:41:04;;;;;;;9.95;5.20;;;;;;;21.10;35.04;93275.31;5046909;28;20550;-71
2023/10/15 11:43:34;;;;;;;9.18;5.00;;;;;;;21.23;34.68;93284.53;5049703;28;20052;-73
2023/10/15 11:46:07;;;;;;;8.50;4.45;;;;;;;21.27;34.94;93281.78;5046776;28;20448;-72
2023/10/15 11:48:34;;;;;;;10.27;3.95;;;;;;;21.29;35.08;93279.47;5050541;28;20116;-71
2023/10/15 11:51:05;;;;;;;17.83;4.75;;;;;;;21.02;34.52;93252.94;5057041;28;20043;-71
2023/10/15 11:53:30;;;;;;;10.32;3.72;;;;;;;21.19;34.32;93272.19;5047436;28;20252;-72
2023/10/15 11:55:56;;;;;;;10.38;4.78;;;;;;;21.35;34.15;93281.41;5046431;28;20673;-71
2023/10/15 11:58:23;;;;;;;8.93;3.78;;;;;;;21.41;33.40;93273.66;5047041;28;20075;-71
2023/10/15 12:00:52;;;;;;;8.38;4.00;;;;;;;21.44;33.59;93262.03;5044723;28;20063;-71
2023/10/15 12:03:21;;;;;;;11.02;4.43;;;;;;;21.54;33.79;93261.19;5043097;28;20024;-71
2023/10/15 12:05:49;;;;;;;19.17;5.38;;;;;;;21.61;34.03;93260.44;5041329;28;20036;-69
2023/10/15 12:08:16;;;;;;;10.15;5.55;;;;;;;21.33;35.16;93248.56;5048635;28;20055;-73